sensor_id;sensor_type;location;lat;lon;timestamp;temperature;humidity
12922;DHT22;6528;48.086;16.282;2023-11-19T00:00:21;21.30;1.00
12922;DHT22;6528;48.086;16.282;2023-11-19T00:02:50;21.40;1.00
12922;DHT22;6528;48.086;16.282;2023-11-19T00:05:18;21.40;1.00
12922;DHT22;6528;48.086;16.282;2023-11-19T00:07:46;21.40;1.00
12922;DHT22;6528;48.086;16.282;2023-11-19T00:10:14;21.50;1.00
12922;DHT22;6528;48.086;16.282;2023-11-19T00:12:48;21.50;1.00
12922;DHT22;6528;48.086;16.282;2023-11-19T00:15:16;21.50;1.00
12922;DHT22;6528;48.086;16.282;2023-11-19T00:17:47;21.60;1.00
12922;DHT22;6528;48.086;16.282;2023-11-19T00:20:18;21.60;1.00
12922;DHT22;6528;48.086;16.282;2023-11-19T00:22:46;21.60;1.00
12922;DHT22;6528;48.086;16.282;2023-11-19T00:25:20;21.60;1.00
12922;DHT22;6528;48.086;16.282;2023-11-19T00:27:51;21.60;1.00
12922;DHT22;6528;48.086;16.282;2023-11-19T00:30:21;21.70;1.00
12922;DHT22;6528;48.086;16.282;2023-11-19T00:32:48;21.70;1.00
12922;DHT22;6528;48.086;16.282;2023-11-19T00:35:16;21.80;1.00
12922;DHT22;6528;48.086;16.282;2023-11-19T00:37:43;21.80;1.00
12922;DHT22;6528;48.086;16.282;2023-11-19T00:40:13;21.80;1.00
12922;DHT22;6528;48.086;16.282;2023-11-19T00:42:43;21.80;1.00
12922;DHT22;6528;48.086;16.282;2023-11-19T00:45:11;21.80;1.00
12922;DHT22;6528;48.086;16.282;2023-11-19T00:47:40;21.80;1.00
12922;DHT22;6528;48.086;16.282;2023-11-19T00:50:08;21.80;1.00
12922;DHT22;6528;48.086;16.282;2023-11-19T00:52:40;21.80;1.00
12922;DHT22;6528;48.086;16.282;2023-11-19T00:55:07;21.90;1.00
12922;DHT22;6528;48.086;16.282;2023-11-19T00:57:35;21.90;1.00
12922;DHT22;6528;48.086;16.282;2023-11-19T01:00:04;21.90;1.00
12922;DHT22;6528;48.086;16.282;2023-11-19T01:02:40;21.90;1.00
12922;DHT22;6528;48.086;16.282;2023-11-19T01:05:08;21.90;1.00
12922;DHT22;6528;48.086;16.282;2023-11-19T01:07:36;21.90;1.00
12922;DHT22;6528;48.086;16.282;2023-11-19T01:10:04;21.90;1.00
12922;DHT22;6528;48.086;16.282;2023-11-19T01:12:32;21.90;1.00
12922;DHT22;6528;48.086;16.282;2023-11-19T01:15:00;22.00;1.00
12922;DHT22;6528;48.086;16.282;2023-11-19T01:17:27;22.00;1.00
12922;DHT22;6528;48.086;16.282;2023-11-19T01:19:55;22.00;1.00
12922;DHT22;6528;48.086;16.282;2023-11-19T01:22:22;22.00;1.00
12922;DHT22;6528;48.086;16.282;2023-11-19T01:24:50;22.00;1.00
12922;DHT22;6528;48.086;16.282;2023-11-19T01:27:19;22.00;1.00
12922;DHT22;6528;48.086;16.282;2023-11-19T01:29:46;22.00;1.00
12922;DHT22;6528;48.086;16.282;2023-11-19T01:32:14;22.10;1.00
12922;DHT22;6528;48.086;16.282;2023-11-19T01:34:41;22.10;1.00
12922;DHT22;6528;48.086;16.282;2023-11-19T01:37:08;22.10;1.00
12922;DHT22;6528;48.086;16.282;2023-11-19T01:39:39;22.10;1.00
12922;DHT22;6528;48.086;16.282;2023-11-19T01:42:07;22.00;1.00
12922;DHT22;6528;48.086;16.282;2023-11-19T01:44:34;22.10;1.00
12922;DHT22;6528;48.086;16.282;2023-11-19T01:47:02;22.10;1.00
12922;DHT22;6528;48.086;16.282;2023-11-19T01:49:31;22.10;1.00
12922;DHT22;6528;48.086;16.282;2023-11-19T01:52:00;22.10;1.00
12922;DHT22;6528;48.086;16.282;2023-11-19T01:54:28;22.10;1.00
12922;DHT22;6528;48.086;16.282;2023-11-19T01:56:56;22.20;1.00
12922;DHT22;6528;48.086;16.282;2023-11-19T01:59:24;22.20;1.00
12922;DHT22;6528;48.086;16.282;2023-11-19T02:01:54;22.20;1.00
12922;DHT22;6528;48.086;16.282;2023-11-19T02:04:25;22.20;1.00
12922;DHT22;6528;48.086;16.282;2023-11-19T02:06:56;22.20;1.00
12922;DHT22;6528;48.086;16.282;2023-11-19T02:09:25;22.20;1.00
12922;DHT22;6528;48.086;16.282;2023-11-19T02:11:55;22.20;1.00
12922;DHT22;6528;48.086;16.282;2023-11-19T02:14:25;22.20;1.00
12922;DHT22;6528;48.086;16.282;2023-11-19T02:16:53;22.30;1.00
12922;DHT22;6528;48.086;16.282;2023-11-19T02:19:21;22.30;1.00
12922;DHT22;6528;48.086;16.282;2023-11-19T02:21:48;22.20;1.00
12922;DHT22;6528;48.086;16.282;2023-11-19T02:24:17;22.20;1.00
12922;DHT22;6528;48.086;16.282;2023-11-19T02:29:19;22.20;1.00
12922;DHT22;6528;48.086;16.282;2023-11-19T02:31:46;22.20;99.90
12922;DHT22;6528;48.086;16.282;2023-11-19T02:34:14;22.20;99.90
12922;DHT22;6528;48.086;16.282;2023-11-19T02:36:41;22.20;99.90
12922;DHT22;6528;48.086;16.282;2023-11-19T02:39:09;22.20;99.90
12922;DHT22;6528;48.086;16.282;2023-11-19T02:41:39;22.20;99.90
12922;DHT22;6528;48.086;16.282;2023-11-19T02:44:07;22.20;99.90
12922;DHT22;6528;48.086;16.282;2023-11-19T02:46:34;22.30;99.90
12922;DHT22;6528;48.086;16.282;2023-11-19T02:49:02;22.30;99.90
12922;DHT22;6528;48.086;16.282;2023-11-19T02:51:29;22.30;99.90
12922;DHT22;6528;48.086;16.282;2023-11-19T02:53:57;22.30;99.90
12922;DHT22;6528;48.086;16.282;2023-11-19T02:56:25;22.30;99.90
12922;DHT22;6528;48.086;16.282;2023-11-19T02:58:53;22.30;99.90
12922;DHT22;6528;48.086;16.282;2023-11-19T03:01:25;22.30;99.90
12922;DHT22;6528;48.086;16.282;2023-11-19T03:03:59;22.30;99.90
12922;DHT22;6528;48.086;16.282;2023-11-19T03:06:29;22.30;99.90
12922;DHT22;6528;48.086;16.282;2023-11-19T03:08:57;22.30;99.90
12922;DHT22;6528;48.086;16.282;2023-11-19T03:11:24;22.30;99.90
12922;DHT22;6528;48.086;16.282;2023-11-19T03:13:51;22.30;99.90
12922;DHT22;6528;48.086;16.282;2023-11-19T03:16:19;22.30;99.90
12922;DHT22;6528;48.086;16.282;2023-11-19T03:18:46;22.30;99.90
12922;DHT22;6528;48.086;16.282;2023-11-19T03:21:13;22.30;99.90
12922;DHT22;6528;48.086;16.282;2023-11-19T03:23:40;22.30;99.90
12922;DHT22;6528;48.086;16.282;2023-11-19T03:26:10;22.30;99.90
12922;DHT22;6528;48.086;16.282;2023-11-19T03:28:37;22.30;99.90
12922;DHT22;6528;48.086;16.282;2023-11-19T03:31:05;22.30;99.90
12922;DHT22;6528;48.086;16.282;2023-11-19T03:33:36;22.30;99.90
12922;DHT22;6528;48.086;16.282;2023-11-19T03:36:05;22.30;99.90
12922;DHT22;6528;48.086;16.282;2023-11-19T03:38:34;22.30;99.90
12922;DHT22;6528;48.086;16.282;2023-11-19T03:41:01;22.30;99.90
12922;DHT22;6528;48.086;16.282;2023-11-19T03:43:36;22.30;99.90
12922;DHT22;6528;48.086;16.282;2023-11-19T03:46:04;22.30;99.90
12922;DHT22;6528;48.086;16.282;2023-11-19T03:48:32;22.30;99.90
12922;DHT22;6528;48.086;16.282;2023-11-19T03:50:59;22.30;99.90
12922;DHT22;6528;48.086;16.282;2023-11-19T03:53:27;22.30;99.90
12922;DHT22;6528;48.086;16.282;2023-11-19T03:55:54;22.30;99.90
12922;DHT22;6528;48.086;16.282;2023-11-19T03:58:21;22.30;99.90
12922;DHT22;6528;48.086;16.282;2023-11-19T04:00:49;22.30;99.90
12922;DHT22;6528;48.086;16.282;2023-11-19T04:03:16;22.30;99.90
12922;DHT22;6528;48.086;16.282;2023-11-19T04:05:44;22.30;99.90
12922;DHT22;6528;48.086;16.282;2023-11-19T04:08:11;22.30;99.90
12922;DHT22;6528;48.086;16.282;2023-11-19T04:10:38;22.30;99.90
12922;DHT22;6528;48.086;16.282;2023-11-19T04:13:05;22.30;99.90
12922;DHT22;6528;48.086;16.282;2023-11-19T04:15:33;22.30;99.90
12922;DHT22;6528;48.086;16.282;2023-11-19T04:18:00;22.40;99.90
12922;DHT22;6528;48.086;16.282;2023-11-19T04:20:28;22.30;99.90
12922;DHT22;6528;48.086;16.282;2023-11-19T04:22:55;22.40;99.90
12922;DHT22;6528;48.086;16.282;2023-11-19T04:25:23;22.30;99.90
12922;DHT22;6528;48.086;16.282;2023-11-19T04:27:53;22.30;99.90
12922;DHT22;6528;48.086;16.282;2023-11-19T04:30:20;22.40;99.90
12922;DHT22;6528;48.086;16.282;2023-11-19T04:32:48;22.40;99.90
12922;DHT22;6528;48.086;16.282;2023-11-19T04:35:16;22.30;99.90
12922;DHT22;6528;48.086;16.282;2023-11-19T04:37:44;22.40;99.90
12922;DHT22;6528;48.086;16.282;2023-11-19T04:40:12;22.40;99.90
12922;DHT22;6528;48.086;16.282;2023-11-19T04:42:39;22.40;99.90
12922;DHT22;6528;48.086;16.282;2023-11-19T04:45:10;22.40;99.90
12922;DHT22;6528;48.086;16.282;2023-11-19T04:47:37;22.30;99.90
12922;DHT22;6528;48.086;16.282;2023-11-19T04:50:05;22.40;99.90
12922;DHT22;6528;48.086;16.282;2023-11-19T04:52:33;22.40;99.90
12922;DHT22;6528;48.086;16.282;2023-11-19T04:55:00;22.40;99.90
12922;DHT22;6528;48.086;16.282;2023-11-19T04:57:28;22.40;99.90
12922;DHT22;6528;48.086;16.282;2023-11-19T04:59:55;22.40;99.90
12922;DHT22;6528;48.086;16.282;2023-11-19T05:02:22;22.40;99.90
12922;DHT22;6528;48.086;16.282;2023-11-19T05:04:49;22.40;99.90
12922;DHT22;6528;48.086;16.282;2023-11-19T05:07:16;22.40;99.90
12922;DHT22;6528;48.086;16.282;2023-11-19T05:09:44;22.40;99.90
12922;DHT22;6528;48.086;16.282;2023-11-19T05:12:11;22.40;99.90
12922;DHT22;6528;48.086;16.282;2023-11-19T05:14:39;22.40;99.90
12922;DHT22;6528;48.086;16.282;2023-11-19T05:17:07;22.40;99.90
12922;DHT22;6528;48.086;16.282;2023-11-19T05:19:35;22.40;99.90
12922;DHT22;6528;48.086;16.282;2023-11-19T05:22:02;22.40;99.90
12922;DHT22;6528;48.086;16.282;2023-11-19T05:24:31;22.40;99.90
12922;DHT22;6528;48.086;16.282;2023-11-19T05:26:59;22.40;99.90
12922;DHT22;6528;48.086;16.282;2023-11-19T05:29:26;22.40;99.90
12922;DHT22;6528;48.086;16.282;2023-11-19T05:31:54;22.40;99.90
12922;DHT22;6528;48.086;16.282;2023-11-19T05:34:22;22.40;99.90
12922;DHT22;6528;48.086;16.282;2023-11-19T05:36:49;22.40;99.90
12922;DHT22;6528;48.086;16.282;2023-11-19T05:39:17;22.40;99.90
12922;DHT22;6528;48.086;16.282;2023-11-19T05:41:47;22.40;99.90
12922;DHT22;6528;48.086;16.282;2023-11-19T05:44:15;22.40;99.90
12922;DHT22;6528;48.086;16.282;2023-11-19T05:46:43;22.40;99.90
12922;DHT22;6528;48.086;16.282;2023-11-19T05:49:11;22.40;99.90
12922;DHT22;6528;48.086;16.282;2023-11-19T05:51:40;22.40;99.90
12922;DHT22;6528;48.086;16.282;2023-11-19T05:54:08;22.40;99.90
12922;DHT22;6528;48.086;16.282;2023-11-19T05:56:36;22.40;99.90
12922;DHT22;6528;48.086;16.282;2023-11-19T05:59:05;22.40;99.90
12922;DHT22;6528;48.086;16.282;2023-11-19T06:01:36;22.50;99.90
12922;DHT22;6528;48.086;16.282;2023-11-19T06:04:03;22.40;99.90
12922;DHT22;6528;48.086;16.282;2023-11-19T06:06:31;22.40;99.90
12922;DHT22;6528;48.086;16.282;2023-11-19T06:08:59;22.40;99.90
12922;DHT22;6528;48.086;16.282;2023-11-19T06:11:39;22.40;99.90
12922;DHT22;6528;48.086;16.282;2023-11-19T06:14:06;22.40;99.90
12922;DHT22;6528;48.086;16.282;2023-11-19T06:16:34;22.40;99.90
12922;DHT22;6528;48.086;16.282;2023-11-19T06:19:04;22.40;99.90
12922;DHT22;6528;48.086;16.282;2023-11-19T06:21:31;22.40;99.90
12922;DHT22;6528;48.086;16.282;2023-11-19T06:23:59;22.40;99.90
12922;DHT22;6528;48.086;16.282;2023-11-19T06:26:27;22.40;99.90
12922;DHT22;6528;48.086;16.282;2023-11-19T06:28:54;22.40;99.90
12922;DHT22;6528;48.086;16.282;2023-11-19T06:31:22;22.40;99.90
12922;DHT22;6528;48.086;16.282;2023-11-19T06:33:49;22.40;99.90
12922;DHT22;6528;48.086;16.282;2023-11-19T06:36:17;22.40;99.90
12922;DHT22;6528;48.086;16.282;2023-11-19T06:38:44;22.40;99.90
12922;DHT22;6528;48.086;16.282;2023-11-19T06:41:12;22.40;99.90
12922;DHT22;6528;48.086;16.282;2023-11-19T06:43:39;22.40;99.90
12922;DHT22;6528;48.086;16.282;2023-11-19T06:46:18;22.40;99.90
12922;DHT22;6528;48.086;16.282;2023-11-19T06:48:46;22.50;99.90
12922;DHT22;6528;48.086;16.282;2023-11-19T06:51:13;22.40;99.90
12922;DHT22;6528;48.086;16.282;2023-11-19T06:53:42;22.40;99.90
12922;DHT22;6528;48.086;16.282;2023-11-19T06:56:22;22.40;99.90
12922;DHT22;6528;48.086;16.282;2023-11-19T06:58:50;22.50;99.90
12922;DHT22;6528;48.086;16.282;2023-11-19T07:01:19;22.40;99.90
12922;DHT22;6528;48.086;16.282;2023-11-19T07:03:47;22.40;99.90
12922;DHT22;6528;48.086;16.282;2023-11-19T07:06:15;22.40;99.90
12922;DHT22;6528;48.086;16.282;2023-11-19T07:08:43;22.40;99.90
12922;DHT22;6528;48.086;16.282;2023-11-19T07:11:14;22.50;99.90
12922;DHT22;6528;48.086;16.282;2023-11-19T07:13:43;22.50;99.90
12922;DHT22;6528;48.086;16.282;2023-11-19T07:16:14;22.50;99.90
12922;DHT22;6528;48.086;16.282;2023-11-19T07:18:42;22.50;99.90
12922;DHT22;6528;48.086;16.282;2023-11-19T07:21:11;22.50;99.90
12922;DHT22;6528;48.086;16.282;2023-11-19T07:23:38;22.50;99.90
12922;DHT22;6528;48.086;16.282;2023-11-19T07:26:06;22.50;99.90
12922;DHT22;6528;48.086;16.282;2023-11-19T07:28:36;22.50;99.90
12922;DHT22;6528;48.086;16.282;2023-11-19T07:31:04;22.50;99.90
12922;DHT22;6528;48.086;16.282;2023-11-19T07:33:31;22.50;99.90
12922;DHT22;6528;48.086;16.282;2023-11-19T07:35:59;22.70;99.90
12922;DHT22;6528;48.086;16.282;2023-11-19T07:38:26;22.50;99.90
12922;DHT22;6528;48.086;16.282;2023-11-19T07:40:54;22.50;99.90
12922;DHT22;6528;48.086;16.282;2023-11-19T07:43:23;22.50;99.90
12922;DHT22;6528;48.086;16.282;2023-11-19T07:45:50;22.50;99.90
12922;DHT22;6528;48.086;16.282;2023-11-19T07:48:18;22.50;99.90
12922;DHT22;6528;48.086;16.282;2023-11-19T07:50:50;22.50;99.90
12922;DHT22;6528;48.086;16.282;2023-11-19T07:53:17;22.50;99.90
12922;DHT22;6528;48.086;16.282;2023-11-19T07:55:45;22.50;99.90
12922;DHT22;6528;48.086;16.282;2023-11-19T07:58:13;22.50;99.90
12922;DHT22;6528;48.086;16.282;2023-11-19T08:00:40;22.50;99.90
12922;DHT22;6528;48.086;16.282;2023-11-19T08:03:07;22.50;99.90
12922;DHT22;6528;48.086;16.282;2023-11-19T08:05:34;22.50;99.90
12922;DHT22;6528;48.086;16.282;2023-11-19T08:08:01;22.50;99.90
12922;DHT22;6528;48.086;16.282;2023-11-19T08:10:28;22.50;99.90
12922;DHT22;6528;48.086;16.282;2023-11-19T08:12:56;22.60;99.90
12922;DHT22;6528;48.086;16.282;2023-11-19T08:15:23;22.60;99.90
12922;DHT22;6528;48.086;16.282;2023-11-19T08:17:53;22.60;1.00
12922;DHT22;6528;48.086;16.282;2023-11-19T08:20:20;22.60;1.00
12922;DHT22;6528;48.086;16.282;2023-11-19T08:22:47;22.60;1.00
12922;DHT22;6528;48.086;16.282;2023-11-19T08:25:15;22.60;1.00
12922;DHT22;6528;48.086;16.282;2023-11-19T08:27:42;22.60;1.00
12922;DHT22;6528;48.086;16.282;2023-11-19T08:30:10;22.70;1.00
12922;DHT22;6528;48.086;16.282;2023-11-19T08:32:37;22.70;1.00
12922;DHT22;6528;48.086;16.282;2023-11-19T08:35:04;22.80;1.00
12922;DHT22;6528;48.086;16.282;2023-11-19T08:37:32;22.70;1.00
12922;DHT22;6528;48.086;16.282;2023-11-19T08:39:59;22.70;1.00
12922;DHT22;6528;48.086;16.282;2023-11-19T08:42:26;22.80;1.00
12922;DHT22;6528;48.086;16.282;2023-11-19T08:44:53;22.80;1.00
12922;DHT22;6528;48.086;16.282;2023-11-19T08:47:21;22.80;1.00
12922;DHT22;6528;48.086;16.282;2023-11-19T08:49:52;22.80;1.00
12922;DHT22;6528;48.086;16.282;2023-11-19T08:52:23;22.80;1.00
12922;DHT22;6528;48.086;16.282;2023-11-19T08:54:50;22.90;1.00
12922;DHT22;6528;48.086;16.282;2023-11-19T08:57:17;22.90;81.10
12922;DHT22;6528;48.086;16.282;2023-11-19T08:59:44;22.90;99.90
12922;DHT22;6528;48.086;16.282;2023-11-19T09:02:13;22.90;1.00
12922;DHT22;6528;48.086;16.282;2023-11-19T09:04:40;22.90;1.00
12922;DHT22;6528;48.086;16.282;2023-11-19T09:07:08;22.90;24.20
12922;DHT22;6528;48.086;16.282;2023-11-19T09:09:38;22.90;99.90
12922;DHT22;6528;48.086;16.282;2023-11-19T09:17:00;23.00;99.90
12922;DHT22;6528;48.086;16.282;2023-11-19T09:19:27;23.00;99.90
12922;DHT22;6528;48.086;16.282;2023-11-19T09:26:48;25.30;1.00
12922;DHT22;6528;48.086;16.282;2023-11-19T09:29:16;23.00;1.00
12922;DHT22;6528;48.086;16.282;2023-11-19T09:31:43;23.10;1.00
12922;DHT22;6528;48.086;16.282;2023-11-19T09:34:10;23.00;90.10
12922;DHT22;6528;48.086;16.282;2023-11-19T09:36:37;23.10;99.70
12922;DHT22;6528;48.086;16.282;2023-11-19T09:39:04;23.10;99.90
12922;DHT22;6528;48.086;16.282;2023-11-19T09:41:32;23.10;99.90
12922;DHT22;6528;48.086;16.282;2023-11-19T09:43:59;23.10;99.90
12922;DHT22;6528;48.086;16.282;2023-11-19T09:53:49;23.20;1.00
12922;DHT22;6528;48.086;16.282;2023-11-19T09:56:16;23.20;1.00
12922;DHT22;6528;48.086;16.282;2023-11-19T09:58:44;23.20;1.00
12922;DHT22;6528;48.086;16.282;2023-11-19T10:01:11;23.20;1.00
12922;DHT22;6528;48.086;16.282;2023-11-19T10:03:42;23.20;1.00
12922;DHT22;6528;48.086;16.282;2023-11-19T10:06:11;23.20;1.00
12922;DHT22;6528;48.086;16.282;2023-11-19T10:08:38;23.20;1.00
12922;DHT22;6528;48.086;16.282;2023-11-19T10:11:09;23.20;1.00
12922;DHT22;6528;48.086;16.282;2023-11-19T10:13:38;23.20;1.00
12922;DHT22;6528;48.086;16.282;2023-11-19T10:16:10;23.20;1.00
12922;DHT22;6528;48.086;16.282;2023-11-19T10:18:49;23.20;1.00
12922;DHT22;6528;48.086;16.282;2023-11-19T10:21:19;23.20;1.00
12922;DHT22;6528;48.086;16.282;2023-11-19T10:23:54;23.20;1.00
12922;DHT22;6528;48.086;16.282;2023-11-19T10:26:23;23.20;1.00
12922;DHT22;6528;48.086;16.282;2023-11-19T10:28:50;23.20;1.00
12922;DHT22;6528;48.086;16.282;2023-11-19T10:31:19;23.20;1.00
12922;DHT22;6528;48.086;16.282;2023-11-19T10:33:52;23.20;1.00
12922;DHT22;6528;48.086;16.282;2023-11-19T10:36:19;23.20;1.00
12922;DHT22;6528;48.086;16.282;2023-11-19T10:38:56;23.30;1.00
12922;DHT22;6528;48.086;16.282;2023-11-19T10:41:31;23.20;1.00
12922;DHT22;6528;48.086;16.282;2023-11-19T10:43:59;23.20;1.00
12922;DHT22;6528;48.086;16.282;2023-11-19T10:46:40;23.30;1.00
12922;DHT22;6528;48.086;16.282;2023-11-19T10:49:08;23.30;1.00
12922;DHT22;6528;48.086;16.282;2023-11-19T10:51:36;23.20;1.00
12922;DHT22;6528;48.086;16.282;2023-11-19T10:54:05;23.20;1.00
12922;DHT22;6528;48.086;16.282;2023-11-19T10:56:33;23.20;1.00
12922;DHT22;6528;48.086;16.282;2023-11-19T10:59:01;23.30;1.00
12922;DHT22;6528;48.086;16.282;2023-11-19T11:01:48;23.30;1.00
12922;DHT22;6528;48.086;16.282;2023-11-19T11:04:23;23.30;1.00
12922;DHT22;6528;48.086;16.282;2023-11-19T11:06:51;23.30;1.00
12922;DHT22;6528;48.086;16.282;2023-11-19T11:09:20;23.30;1.00
12922;DHT22;6528;48.086;16.282;2023-11-19T11:11:48;23.30;1.00
12922;DHT22;6528;48.086;16.282;2023-11-19T11:14:19;23.30;1.00
12922;DHT22;6528;48.086;16.282;2023-11-19T11:16:48;23.40;1.00
12922;DHT22;6528;48.086;16.282;2023-11-19T11:19:16;23.40;1.00
12922;DHT22;6528;48.086;16.282;2023-11-19T11:21:52;23.40;1.00
12922;DHT22;6528;48.086;16.282;2023-11-19T11:24:24;23.40;1.00
12922;DHT22;6528;48.086;16.282;2023-11-19T11:35:39;23.40;1.00
12922;DHT22;6528;48.086;16.282;2023-11-19T11:38:10;23.50;1.00
12922;DHT22;6528;48.086;16.282;2023-11-19T11:40:38;23.50;1.00
12922;DHT22;6528;48.086;16.282;2023-11-19T11:43:46;23.50;1.00
12922;DHT22;6528;48.086;16.282;2023-11-19T11:49:25;23.50;1.00
12922;DHT22;6528;48.086;16.282;2023-11-19T11:51:59;23.50;1.00
12922;DHT22;6528;48.086;16.282;2023-11-19T11:54:28;23.50;1.00
12922;DHT22;6528;48.086;16.282;2023-11-19T11:57:15;23.50;1.00
12922;DHT22;6528;48.086;16.282;2023-11-19T11:59:45;23.50;1.00
12922;DHT22;6528;48.086;16.282;2023-11-19T12:02:15;23.50;1.40
12922;DHT22;6528;48.086;16.282;2023-11-19T12:04:47;23.50;7.60
12922;DHT22;6528;48.086;16.282;2023-11-19T12:07:18;23.50;44.40
12922;DHT22;6528;48.086;16.282;2023-11-19T12:09:57;23.40;99.90
12922;DHT22;6528;48.086;16.282;2023-11-19T12:12:35;23.50;99.90
12922;DHT22;6528;48.086;16.282;2023-11-19T12:15:07;23.50;99.90
12922;DHT22;6528;48.086;16.282;2023-11-19T12:17:48;23.50;99.90
12922;DHT22;6528;48.086;16.282;2023-11-19T12:20:18;23.40;99.90
12922;DHT22;6528;48.086;16.282;2023-11-19T12:22:49;23.50;99.90
12922;DHT22;6528;48.086;16.282;2023-11-19T12:25:18;23.50;99.90
12922;DHT22;6528;48.086;16.282;2023-11-19T12:27:49;23.50;99.90
12922;DHT22;6528;48.086;16.282;2023-11-19T12:35:21;23.50;1.00
12922;DHT22;6528;48.086;16.282;2023-11-19T12:37:49;23.50;99.90
12922;DHT22;6528;48.086;16.282;2023-11-19T12:42:47;23.50;1.00
12922;DHT22;6528;48.086;16.282;2023-11-19T12:45:15;23.40;1.00
12922;DHT22;6528;48.086;16.282;2023-11-19T12:47:44;23.40;1.00
12922;DHT22;6528;48.086;16.282;2023-11-19T12:50:11;23.50;1.00
12922;DHT22;6528;48.086;16.282;2023-11-19T12:52:39;23.50;1.00
12922;DHT22;6528;48.086;16.282;2023-11-19T12:55:27;23.50;1.00
12922;DHT22;6528;48.086;16.282;2023-11-19T12:57:57;23.50;1.00
12922;DHT22;6528;48.086;16.282;2023-11-19T13:00:26;23.50;1.00
12922;DHT22;6528;48.086;16.282;2023-11-19T13:02:56;23.40;1.00
12922;DHT22;6528;48.086;16.282;2023-11-19T13:05:29;23.50;1.00
12922;DHT22;6528;48.086;16.282;2023-11-19T13:08:08;23.50;1.00
12922;DHT22;6528;48.086;16.282;2023-11-19T13:10:51;23.50;1.00
12922;DHT22;6528;48.086;16.282;2023-11-19T13:13:19;23.40;1.00
12922;DHT22;6528;48.086;16.282;2023-11-19T13:15:47;23.50;1.00
12922;DHT22;6528;48.086;16.282;2023-11-19T13:18:16;23.50;1.00
12922;DHT22;6528;48.086;16.282;2023-11-19T13:20:43;23.50;1.00
12922;DHT22;6528;48.086;16.282;2023-11-19T13:23:11;23.50;1.00
12922;DHT22;6528;48.086;16.282;2023-11-19T13:25:38;23.50;1.00
12922;DHT22;6528;48.086;16.282;2023-11-19T13:28:06;23.50;1.00
12922;DHT22;6528;48.086;16.282;2023-11-19T13:30:33;23.50;1.00
12922;DHT22;6528;48.086;16.282;2023-11-19T13:33:00;23.50;1.00
12922;DHT22;6528;48.086;16.282;2023-11-19T13:35:28;23.50;1.00
12922;DHT22;6528;48.086;16.282;2023-11-19T13:37:55;23.50;1.00
12922;DHT22;6528;48.086;16.282;2023-11-19T13:40:22;23.50;1.00
12922;DHT22;6528;48.086;16.282;2023-11-19T13:42:51;23.50;1.00
12922;DHT22;6528;48.086;16.282;2023-11-19T13:45:19;23.50;1.00
12922;DHT22;6528;48.086;16.282;2023-11-19T13:47:48;23.50;1.00
12922;DHT22;6528;48.086;16.282;2023-11-19T13:50:16;23.50;1.00
12922;DHT22;6528;48.086;16.282;2023-11-19T13:52:47;23.50;1.00
12922;DHT22;6528;48.086;16.282;2023-11-19T13:55:15;23.50;1.00
12922;DHT22;6528;48.086;16.282;2023-11-19T13:57:42;23.50;1.00
12922;DHT22;6528;48.086;16.282;2023-11-19T14:00:12;23.40;1.00
12922;DHT22;6528;48.086;16.282;2023-11-19T14:02:46;23.40;1.00
12922;DHT22;6528;48.086;16.282;2023-11-19T14:05:16;23.40;1.00
12922;DHT22;6528;48.086;16.282;2023-11-19T14:08:04;23.40;1.00
12922;DHT22;6528;48.086;16.282;2023-11-19T14:10:51;23.40;1.00
12922;DHT22;6528;48.086;16.282;2023-11-19T14:13:19;23.40;1.00
12922;DHT22;6528;48.086;16.282;2023-11-19T14:15:45;23.40;1.00
12922;DHT22;6528;48.086;16.282;2023-11-19T14:18:16;23.40;1.00
12922;DHT22;6528;48.086;16.282;2023-11-19T14:20:43;23.40;1.00
12922;DHT22;6528;48.086;16.282;2023-11-19T14:23:11;23.40;1.00
12922;DHT22;6528;48.086;16.282;2023-11-19T14:25:38;23.40;1.00
12922;DHT22;6528;48.086;16.282;2023-11-19T14:28:05;23.40;1.00
12922;DHT22;6528;48.086;16.282;2023-11-19T14:30:33;23.40;1.00
12922;DHT22;6528;48.086;16.282;2023-11-19T14:33:01;23.30;1.00
12922;DHT22;6528;48.086;16.282;2023-11-19T14:35:30;23.40;1.00
12922;DHT22;6528;48.086;16.282;2023-11-19T14:37:57;23.40;1.00
12922;DHT22;6528;48.086;16.282;2023-11-19T14:40:24;23.40;1.00
12922;DHT22;6528;48.086;16.282;2023-11-19T14:42:54;23.40;1.00
12922;DHT22;6528;48.086;16.282;2023-11-19T14:45:21;23.40;1.00
12922;DHT22;6528;48.086;16.282;2023-11-19T14:47:49;23.40;1.00
12922;DHT22;6528;48.086;16.282;2023-11-19T14:50:16;23.40;1.00
12922;DHT22;6528;48.086;16.282;2023-11-19T14:52:43;23.30;1.00
12922;DHT22;6528;48.086;16.282;2023-11-19T14:55:10;23.40;1.00
12922;DHT22;6528;48.086;16.282;2023-11-19T14:57:38;23.40;1.00
12922;DHT22;6528;48.086;16.282;2023-11-19T15:00:06;23.40;1.00
12922;DHT22;6528;48.086;16.282;2023-11-19T15:02:40;23.40;1.00
12922;DHT22;6528;48.086;16.282;2023-11-19T15:05:08;23.40;1.00
12922;DHT22;6528;48.086;16.282;2023-11-19T15:07:40;23.40;1.00
12922;DHT22;6528;48.086;16.282;2023-11-19T15:10:07;23.40;1.00
12922;DHT22;6528;48.086;16.282;2023-11-19T15:12:38;23.40;1.00
12922;DHT22;6528;48.086;16.282;2023-11-19T15:15:07;23.40;1.00
12922;DHT22;6528;48.086;16.282;2023-11-19T15:17:36;23.40;1.00
12922;DHT22;6528;48.086;16.282;2023-11-19T15:20:04;23.30;1.00
12922;DHT22;6528;48.086;16.282;2023-11-19T15:22:31;23.40;1.00
12922;DHT22;6528;48.086;16.282;2023-11-19T15:24:58;23.40;1.00
12922;DHT22;6528;48.086;16.282;2023-11-19T15:27:25;23.40;1.00
12922;DHT22;6528;48.086;16.282;2023-11-19T15:29:52;23.40;1.00
12922;DHT22;6528;48.086;16.282;2023-11-19T15:32:19;23.40;1.00
12922;DHT22;6528;48.086;16.282;2023-11-19T15:34:46;23.40;1.00
12922;DHT22;6528;48.086;16.282;2023-11-19T15:37:13;23.40;1.00
12922;DHT22;6528;48.086;16.282;2023-11-19T15:39:41;23.40;1.00
12922;DHT22;6528;48.086;16.282;2023-11-19T15:42:08;23.40;1.00
12922;DHT22;6528;48.086;16.282;2023-11-19T15:44:37;23.40;1.00
12922;DHT22;6528;48.086;16.282;2023-11-19T15:47:05;23.40;1.00
12922;DHT22;6528;48.086;16.282;2023-11-19T15:49:32;23.40;1.00
12922;DHT22;6528;48.086;16.282;2023-11-19T15:51:59;23.40;1.00
12922;DHT22;6528;48.086;16.282;2023-11-19T15:54:26;23.40;1.00
12922;DHT22;6528;48.086;16.282;2023-11-19T15:56:53;23.40;1.00
12922;DHT22;6528;48.086;16.282;2023-11-19T15:59:20;23.40;1.00
12922;DHT22;6528;48.086;16.282;2023-11-19T16:01:47;23.30;1.00
12922;DHT22;6528;48.086;16.282;2023-11-19T16:04:14;23.40;1.00
12922;DHT22;6528;48.086;16.282;2023-11-19T16:06:42;23.40;1.00
12922;DHT22;6528;48.086;16.282;2023-11-19T16:09:10;23.40;1.00
12922;DHT22;6528;48.086;16.282;2023-11-19T16:11:41;23.40;1.00
12922;DHT22;6528;48.086;16.282;2023-11-19T16:14:23;23.40;1.00
12922;DHT22;6528;48.086;16.282;2023-11-19T16:16:51;23.40;1.00
12922;DHT22;6528;48.086;16.282;2023-11-19T16:19:20;23.40;1.00
12922;DHT22;6528;48.086;16.282;2023-11-19T16:21:47;23.40;1.00
12922;DHT22;6528;48.086;16.282;2023-11-19T16:24:14;23.40;1.00
12922;DHT22;6528;48.086;16.282;2023-11-19T16:26:41;23.30;1.00
12922;DHT22;6528;48.086;16.282;2023-11-19T16:29:08;23.50;1.00